createdAt,value
2022-11-28T00:01:43.199Z,6.22
2022-11-28T00:04:12.076Z,5.97
2022-11-28T00:06:46.283Z,6.55
2022-11-28T00:09:15.669Z,7.03
2022-11-28T00:11:45.491Z,5.88
2022-11-28T00:14:15.006Z,6.00
2022-11-28T00:16:43.681Z,6.75
2022-11-28T00:19:12.634Z,6.50
2022-11-28T00:21:41.703Z,6.03
2022-11-28T00:24:09.875Z,5.55
2022-11-28T00:26:40.655Z,5.47
2022-11-28T00:29:09.594Z,6.32
2022-11-28T00:31:42.727Z,5.97
2022-11-28T00:34:13.929Z,5.95
2022-11-28T00:36:45.176Z,7.10
2022-11-28T00:39:14.151Z,6.47
2022-11-28T00:41:43.971Z,5.88
2022-11-28T00:44:12.887Z,6.28
2022-11-28T00:46:41.793Z,6.18
2022-11-28T00:49:13.126Z,5.93
2022-11-28T00:51:42.105Z,5.90
2022-11-28T00:54:11.175Z,5.60
2022-11-28T00:56:40.802Z,6.38
2022-11-28T00:59:09.293Z,7.00
2022-11-28T01:01:41.452Z,5.72
2022-11-28T01:04:13.654Z,6.20
2022-11-28T01:06:48.213Z,5.95
2022-11-28T01:09:22.264Z,6.03
2022-11-28T01:11:54.232Z,5.60
2022-11-28T01:14:24.860Z,5.75
2022-11-28T01:16:53.645Z,6.30
2022-11-28T01:19:22.208Z,5.30
2022-11-28T01:21:51.682Z,5.40
2022-11-28T01:24:19.950Z,5.75
2022-11-28T01:26:49.039Z,4.90
2022-11-28T01:29:17.224Z,5.88
2022-11-28T01:31:45.848Z,5.65
2022-11-28T01:34:13.647Z,5.18
2022-11-28T01:36:42.780Z,4.60
2022-11-28T01:39:11.238Z,5.40
2022-11-28T01:41:40.544Z,5.32
2022-11-28T01:44:29.213Z,5.57
2022-11-28T01:46:59.987Z,6.60
2022-11-28T01:49:38.171Z,6.03
2022-11-28T01:52:13.190Z,4.97
2022-11-28T01:54:43.735Z,5.32
2022-11-28T01:57:18.517Z,4.97
2022-11-28T01:59:54.338Z,5.88
2022-11-28T02:02:33.794Z,4.60
2022-11-28T02:05:02.671Z,5.72
2022-11-28T02:07:30.701Z,4.45
2022-11-28T02:09:59.545Z,6.05
2022-11-28T02:12:45.070Z,4.43
2022-11-28T02:15:28.805Z,6.20
2022-11-28T02:18:24.579Z,4.97
2022-11-28T02:21:23.115Z,4.32
2022-11-28T02:24:02.620Z,5.05
2022-11-28T02:26:44.348Z,5.40
2022-11-28T02:29:42.477Z,4.93
2022-11-28T02:32:48.616Z,5.40
2022-11-28T02:35:28.172Z,4.50
2022-11-28T02:38:11.057Z,4.88
2022-11-28T02:40:57.148Z,5.70
2022-11-28T02:43:56.940Z,6.40
2022-11-28T02:46:32.557Z,4.63
2022-11-28T02:49:10.247Z,5.03
2022-11-28T02:51:43.571Z,6.05
2022-11-28T02:54:15.083Z,4.55
2022-11-28T02:56:54.334Z,4.55
2022-11-28T02:59:37.685Z,4.57
2022-11-28T03:02:14.080Z,5.47
2022-11-28T03:04:58.199Z,5.30
2022-11-28T03:08:17.332Z,4.63
2022-11-28T03:10:54.364Z,5.75
2022-11-28T03:13:39.203Z,4.95
2022-11-28T03:16:27.308Z,5.32
2022-11-28T03:19:01.391Z,4.78
2022-11-28T03:21:42.090Z,4.88
2022-11-28T03:24:56.883Z,4.78
2022-11-28T03:27:39.568Z,4.85
2022-11-28T03:30:17.519Z,4.43
2022-11-28T03:32:49.620Z,4.55
2022-11-28T03:35:21.867Z,4.18
2022-11-28T03:37:57.661Z,4.40
2022-11-28T03:40:32.918Z,5.60
2022-11-28T03:43:09.974Z,4.80
2022-11-28T03:45:48.446Z,5.13
2022-11-28T03:48:25.491Z,4.57
2022-11-28T03:51:05.162Z,5.03
2022-11-28T03:54:16.395Z,4.53
2022-11-28T03:57:02.847Z,5.07
2022-11-28T03:59:55.262Z,4.40
2022-11-28T04:02:42.642Z,5.03
2022-11-28T04:05:35.130Z,4.88
2022-11-28T04:08:12.233Z,5.03
2022-11-28T04:11:06.224Z,5.20
2022-11-28T04:13:52.315Z,4.28
2022-11-28T04:16:34.847Z,5.05
2022-11-28T04:19:21.651Z,4.57
2022-11-28T04:22:13.502Z,4.90
2022-11-28T04:24:51.174Z,4.70
2022-11-28T04:27:23.885Z,4.60
2022-11-28T04:29:57.067Z,4.50
2022-11-28T04:32:27.031Z,5.10
2022-11-28T04:35:00.523Z,6.13
2022-11-28T04:37:30.061Z,5.00
2022-11-28T04:40:00.581Z,6.32
2022-11-28T04:42:38.256Z,5.22
2022-11-28T04:45:46.777Z,4.63
2022-11-28T04:48:15.460Z,4.90
2022-11-28T04:51:09.742Z,4.25
2022-11-28T04:53:59.758Z,5.32
2022-11-28T04:56:34.440Z,4.17
2022-11-28T04:59:06.063Z,4.30
2022-11-28T05:01:35.421Z,4.47
2022-11-28T05:04:03.864Z,5.32
2022-11-28T05:06:35.102Z,4.45
2022-11-28T05:09:04.560Z,4.03
2022-11-28T05:11:33.773Z,5.72
2022-11-28T05:14:01.567Z,4.72
2022-11-28T05:16:29.686Z,4.90
2022-11-28T05:18:57.530Z,5.00
2022-11-28T05:21:26.574Z,5.05
2022-11-28T05:23:55.247Z,5.15
2022-11-28T05:26:24.217Z,5.70
2022-11-28T05:28:52.232Z,4.68
2022-11-28T05:31:21.750Z,4.30
2022-11-28T05:33:49.973Z,3.90
2022-11-28T05:36:18.963Z,5.40
2022-11-28T05:38:47.379Z,4.65
2022-11-28T05:41:23.997Z,4.05
2022-11-28T05:43:53.396Z,4.57
2022-11-28T05:46:21.543Z,4.47
2022-11-28T05:48:49.583Z,4.68
2022-11-28T05:51:17.630Z,4.35
2022-11-28T05:53:45.445Z,3.92
2022-11-28T05:56:16.676Z,3.95
2022-11-28T05:58:45.016Z,4.40
2022-11-28T06:01:22.357Z,3.58
2022-11-28T06:03:51.977Z,4.13
2022-11-28T06:06:22.312Z,5.38
2022-11-28T06:08:52.449Z,4.53
2022-11-28T06:11:22.898Z,4.47
2022-11-28T06:13:51.389Z,4.53
2022-11-28T06:16:25.679Z,4.88
2022-11-28T06:18:59.973Z,5.03
2022-11-28T06:21:29.361Z,4.43
2022-11-28T06:23:59.154Z,4.53
2022-11-28T06:26:29.389Z,4.03
2022-11-28T06:28:57.627Z,3.58
2022-11-28T06:31:28.878Z,3.80
2022-11-28T06:33:58.780Z,4.22
2022-11-28T06:36:27.815Z,3.83
2022-11-28T06:38:55.826Z,4.07
2022-11-28T06:41:24.000Z,5.70
2022-11-28T06:43:52.303Z,4.43
2022-11-28T06:46:21.869Z,4.20
2022-11-28T06:48:51.783Z,4.18
2022-11-28T06:51:21.902Z,4.07
2022-11-28T06:53:51.221Z,4.20
2022-11-28T06:56:22.733Z,4.20
2022-11-28T06:58:57.174Z,3.25
2022-11-28T07:01:27.864Z,3.70
2022-11-28T07:03:56.382Z,3.55
2022-11-28T07:06:26.289Z,4.15
2022-11-28T07:08:57.024Z,3.90
2022-11-28T07:11:28.672Z,4.07
2022-11-28T07:13:58.291Z,4.50
2022-11-28T07:16:32.644Z,4.47
2022-11-28T07:19:01.304Z,4.20
2022-11-28T07:21:30.883Z,5.32
2022-11-28T07:23:59.624Z,3.65
2022-11-28T07:26:31.252Z,4.50
2022-11-28T07:29:00.038Z,3.88
2022-11-28T07:31:32.245Z,3.55
2022-11-28T07:34:03.209Z,3.63
2022-11-28T07:36:32.260Z,3.97
2022-11-28T07:39:02.401Z,4.22
2022-11-28T07:41:31.320Z,4.00
2022-11-28T07:44:02.428Z,3.92
2022-11-28T07:46:32.119Z,3.22
2022-11-28T07:49:01.206Z,3.85
2022-11-28T07:51:32.615Z,4.45
2022-11-28T07:54:04.124Z,3.63
2022-11-28T07:57:04.490Z,3.92
2022-11-28T07:59:23.875Z,3.67
2022-11-28T08:01:53.963Z,3.80
2022-11-28T08:04:22.101Z,4.80
2022-11-28T08:06:50.396Z,4.38
2022-11-28T08:09:18.209Z,5.40
2022-11-28T08:11:46.268Z,4.00
2022-11-28T08:14:15.034Z,3.45
2022-11-28T08:16:45.238Z,4.07
2022-11-28T08:19:33.784Z,4.13
2022-11-28T08:22:07.555Z,4.22
2022-11-28T08:24:36.355Z,4.07
2022-11-28T08:27:05.353Z,4.25
2022-11-28T08:29:34.130Z,4.15
2022-11-28T08:32:25.808Z,3.88
2022-11-28T08:34:53.922Z,3.80
2022-11-28T08:37:25.113Z,4.82
2022-11-28T08:39:53.340Z,3.88
2022-11-28T08:42:21.991Z,4.35
2022-11-28T08:44:49.909Z,4.40
2022-11-28T08:47:20.654Z,6.63
2022-11-28T08:49:49.174Z,5.38
2022-11-28T08:52:17.844Z,4.20
2022-11-28T08:54:46.207Z,5.43
2022-11-28T08:57:14.470Z,4.43
2022-11-28T08:59:42.750Z,4.47
2022-11-28T09:02:12.692Z,3.85
2022-11-28T09:04:41.022Z,3.95
2022-11-28T09:07:08.973Z,4.32
2022-11-28T09:09:36.872Z,3.70
2022-11-28T09:12:05.338Z,4.05
2022-11-28T09:14:33.264Z,3.50
2022-11-28T09:17:01.902Z,3.65
2022-11-28T09:19:29.677Z,3.75
2022-11-28T09:21:58.211Z,4.20
2022-11-28T09:24:26.095Z,3.45
2022-11-28T09:26:54.361Z,4.20
2022-11-28T09:29:23.071Z,3.85
2022-11-28T09:31:54.262Z,3.78
2022-11-28T09:34:22.010Z,3.10
2022-11-28T09:36:50.236Z,3.45
2022-11-28T09:39:18.085Z,3.42
2022-11-28T09:42:17.340Z,3.00
2022-11-28T09:44:47.290Z,3.28
2022-11-28T09:47:25.307Z,2.75
2022-11-28T09:49:58.174Z,3.38
2022-11-28T09:52:59.171Z,2.88
2022-11-28T09:55:47.577Z,4.35
2022-11-28T09:58:26.772Z,3.35
2022-11-28T10:01:19.116Z,3.55
2022-11-28T10:04:01.683Z,2.95
2022-11-28T10:06:57.875Z,3.45
2022-11-28T10:09:41.366Z,2.90
2022-11-28T10:12:18.504Z,3.08
2022-11-28T10:15:20.329Z,3.47
2022-11-28T10:18:13.213Z,2.72
2022-11-28T10:20:48.195Z,2.80
2022-11-28T10:23:24.520Z,3.58
2022-11-28T10:25:59.631Z,2.92
2022-11-28T10:28:36.093Z,3.72
2022-11-28T10:31:17.642Z,2.90
2022-11-28T10:34:22.974Z,3.25
2022-11-28T10:37:00.950Z,2.70
2022-11-28T10:39:30.174Z,2.75
2022-11-28T10:45:23.381Z,2.90
2022-11-28T10:48:29.496Z,2.13
2022-11-28T10:51:31.566Z,2.83
2022-11-28T10:54:24.348Z,2.53
2022-11-28T10:57:14.875Z,2.13
2022-11-28T11:02:37.355Z,2.00
2022-11-28T11:05:11.599Z,1.60
2022-11-28T11:07:58.508Z,2.10
2022-11-28T11:11:02.151Z,2.13
2022-11-28T11:13:36.162Z,1.70
2022-11-28T11:16:08.249Z,1.80
2022-11-28T11:18:59.243Z,2.05
2022-11-28T11:21:30.595Z,2.08
2022-11-28T11:24:31.181Z,2.13
2022-11-28T11:27:06.514Z,1.98
2022-11-28T11:29:37.840Z,1.60
2022-11-28T11:32:18.206Z,2.15
2022-11-28T11:34:46.759Z,1.70
2022-11-28T11:37:33.199Z,2.08
2022-11-28T11:40:02.678Z,1.73
2022-11-28T11:42:33.917Z,2.20
2022-11-28T11:45:25.343Z,1.88
2022-11-28T11:47:56.691Z,2.00
2022-11-28T11:50:28.328Z,1.90
2022-11-28T11:53:14.051Z,1.80
2022-11-28T11:55:52.503Z,2.40
2022-11-28T11:58:29.718Z,1.90
2022-11-28T12:00:59.674Z,1.75
2022-11-28T12:03:41.834Z,1.90
2022-11-28T12:06:23.767Z,2.13
2022-11-28T12:09:21.056Z,1.90
2022-11-28T12:12:12.954Z,1.70
2022-11-28T12:17:47.903Z,1.90
2022-11-28T12:20:46.263Z,1.92
2022-11-28T12:23:26.348Z,1.80
2022-11-28T12:26:00.810Z,1.70
2022-11-28T12:28:41.210Z,2.65
2022-11-28T12:31:29.543Z,1.80
2022-11-28T12:34:15.524Z,1.83
2022-11-28T12:37:16.952Z,1.77
2022-11-28T12:40:06.881Z,2.08
2022-11-28T12:42:47.208Z,1.85
2022-11-28T12:45:36.888Z,1.80
2022-11-28T12:48:31.041Z,2.05
2022-11-28T12:51:05.140Z,2.17
2022-11-28T12:54:20.316Z,2.33
2022-11-28T12:57:08.519Z,2.17
2022-11-28T13:00:03.433Z,3.08
2022-11-28T13:03:13.546Z,2.45
2022-11-28T13:05:42.013Z,2.17
2022-11-28T13:08:53.543Z,2.30
2022-11-28T13:14:19.783Z,2.17
2022-11-28T13:16:54.727Z,2.50
2022-11-28T13:20:13.592Z,2.60
2022-11-28T13:23:16.972Z,2.40
2022-11-28T13:25:51.667Z,2.70
2022-11-28T13:28:33.563Z,2.50
2022-11-28T13:34:02.495Z,3.03
2022-11-28T13:40:02.253Z,2.58
2022-11-28T13:43:03.356Z,2.38
2022-11-28T13:45:35.975Z,3.10
2022-11-28T13:49:13.942Z,2.60
2022-11-28T13:51:41.773Z,3.22
2022-11-28T13:54:21.545Z,3.25
2022-11-28T13:57:25.318Z,3.10
2022-11-28T14:00:05.440Z,4.03
2022-11-28T14:02:47.055Z,3.15
2022-11-28T14:05:38.149Z,3.17
2022-11-28T14:08:07.996Z,3.38
2022-11-28T14:11:05.609Z,4.05
2022-11-28T14:13:44.938Z,3.55
2022-11-28T14:16:37.075Z,3.60
2022-11-28T14:19:55.211Z,3.60
2022-11-28T14:22:51.001Z,3.25
2022-11-28T14:25:27.146Z,3.30
2022-11-28T14:28:02.809Z,2.95
2022-11-28T14:30:39.457Z,3.85
2022-11-28T14:33:31.313Z,3.17
2022-11-28T14:36:36.070Z,3.03
2022-11-28T14:39:12.217Z,3.28
2022-11-28T14:42:02.672Z,3.47
2022-11-28T14:45:00.780Z,3.63
2022-11-28T14:47:35.101Z,3.80
2022-11-28T14:50:20.645Z,3.45
2022-11-28T14:52:51.077Z,3.85
2022-11-28T14:55:22.670Z,3.42
2022-11-28T14:57:54.246Z,3.70
2022-11-28T15:00:31.723Z,4.22
2022-11-28T15:03:47.217Z,4.82
2022-11-28T15:06:23.153Z,4.45
2022-11-28T15:09:04.554Z,4.57
2022-11-28T15:11:41.249Z,4.45
2022-11-28T15:14:23.629Z,4.65
2022-11-28T15:16:58.489Z,5.15
2022-11-28T15:19:34.300Z,5.03
2022-11-28T15:22:02.178Z,5.75
2022-11-28T15:24:38.862Z,4.88
2022-11-28T15:27:06.958Z,5.25
2022-11-28T15:29:37.005Z,4.40
2022-11-28T15:32:06.557Z,3.88
2022-11-28T15:34:38.033Z,4.63
2022-11-28T15:37:15.960Z,3.20
2022-11-28T15:39:47.468Z,3.65
2022-11-28T15:42:26.933Z,3.20
2022-11-28T15:45:13.414Z,3.42
2022-11-28T15:47:41.345Z,4.75
2022-11-28T15:50:20.332Z,6.22
2022-11-28T15:53:03.652Z,8.13
2022-11-28T15:55:34.520Z,7.93
2022-11-28T15:58:25.461Z,6.75
2022-11-28T16:01:19.037Z,7.65
2022-11-28T16:04:13.056Z,8.50
2022-11-28T16:06:52.534Z,7.63
2022-11-28T16:09:21.067Z,8.38
2022-11-28T16:11:53.163Z,9.65
2022-11-28T16:14:30.816Z,10.20
2022-11-28T16:17:01.776Z,11.52
2022-11-28T16:19:34.459Z,10.35
2022-11-28T16:22:07.908Z,9.77
2022-11-28T16:24:48.875Z,8.65
2022-11-28T16:27:36.685Z,7.40
2022-11-28T16:30:31.234Z,8.48
2022-11-28T16:32:59.664Z,6.80
2022-11-28T16:35:40.523Z,7.45
2022-11-28T16:38:21.737Z,8.43
2022-11-28T16:40:51.678Z,9.17
2022-11-28T16:43:29.129Z,9.50
2022-11-28T16:46:02.595Z,8.88
2022-11-28T16:48:35.618Z,9.27
2022-11-28T16:51:15.063Z,8.10
2022-11-28T16:53:48.097Z,8.13
2022-11-28T16:56:33.585Z,7.60
2022-11-28T16:59:21.867Z,8.75
2022-11-28T17:01:53.650Z,8.20
2022-11-28T17:04:27.151Z,7.57
2022-11-28T17:07:05.198Z,7.68
2022-11-28T17:09:36.062Z,8.20
2022-11-28T17:12:05.889Z,8.25
2022-11-28T17:14:34.357Z,8.98
2022-11-28T17:17:02.108Z,9.18
2022-11-28T17:19:30.460Z,8.80
2022-11-28T17:22:00.053Z,10.25
2022-11-28T17:24:33.559Z,10.45
2022-11-28T17:27:01.634Z,10.63
2022-11-28T17:29:30.368Z,11.55
2022-11-28T17:31:59.481Z,11.82
2022-11-28T17:34:31.297Z,13.30
2022-11-28T17:37:00.980Z,13.98
2022-11-28T17:39:29.918Z,13.90
2022-11-28T17:44:34.403Z,14.40
2022-11-28T17:47:03.777Z,16.20
2022-11-28T17:49:32.583Z,15.30
2022-11-28T17:52:00.367Z,16.17
2022-11-28T17:54:29.420Z,15.20
2022-11-28T17:56:58.022Z,12.88
2022-11-28T17:59:27.314Z,13.15
2022-11-28T18:01:56.686Z,13.68
2022-11-28T18:04:26.515Z,12.90
2022-11-28T18:06:55.318Z,13.18
2022-11-28T18:09:24.517Z,12.10
2022-11-28T18:11:52.832Z,10.05
2022-11-28T18:14:22.291Z,10.18
2022-11-28T18:16:50.851Z,9.98
2022-11-28T18:19:21.170Z,10.30
2022-11-28T18:21:49.497Z,9.90
2022-11-28T18:24:17.552Z,10.20
2022-11-28T18:26:48.316Z,8.75
2022-11-28T18:29:17.318Z,8.65
2022-11-28T18:31:45.688Z,10.52
2022-11-28T18:34:13.788Z,8.95
2022-11-28T18:36:41.639Z,9.80
2022-11-28T18:39:13.836Z,9.38
2022-11-28T18:41:42.500Z,9.75
2022-11-28T18:44:11.510Z,10.52
2022-11-28T18:46:40.145Z,10.55
2022-11-28T18:49:11.447Z,9.05
2022-11-28T18:51:39.349Z,10.02
2022-11-28T18:54:09.129Z,8.48
2022-11-28T18:56:37.551Z,8.02
2022-11-28T18:59:06.348Z,5.00
2022-11-28T19:01:35.585Z,4.03
2022-11-28T19:06:37.034Z,4.65
2022-11-28T19:09:09.371Z,4.53
2022-11-28T19:11:38.528Z,3.53
2022-11-28T19:14:08.129Z,3.15
2022-11-28T19:16:37.787Z,4.65
2022-11-28T19:19:06.698Z,3.22
2022-11-28T19:21:37.076Z,3.05
2022-11-28T19:24:08.111Z,3.80
2022-11-28T19:26:37.353Z,4.35
2022-11-28T19:29:06.721Z,4.72
2022-11-28T19:31:36.387Z,3.45
2022-11-28T19:36:40.883Z,4.07
2022-11-28T19:39:23.865Z,6.72
2022-11-28T19:41:53.616Z,7.28
2022-11-28T19:44:24.334Z,5.47
2022-11-28T19:49:23.987Z,6.10
2022-11-28T19:51:52.646Z,4.78
2022-11-28T19:54:21.138Z,5.70
2022-11-28T19:56:52.830Z,6.82
2022-11-28T19:59:20.901Z,6.55
2022-11-28T20:01:52.778Z,6.57
2022-11-28T20:04:21.543Z,7.80
2022-11-28T20:06:49.846Z,7.28
2022-11-28T20:09:17.928Z,6.85
2022-11-28T20:11:49.025Z,7.00
2022-11-28T20:14:19.275Z,7.75
2022-11-28T20:16:48.207Z,7.00
2022-11-28T20:19:17.904Z,7.82
2022-11-28T20:21:46.675Z,7.93
2022-11-28T20:24:16.192Z,7.57
2022-11-28T20:26:47.244Z,7.50
2022-11-28T20:29:16.885Z,7.72
2022-11-28T20:31:48.076Z,8.70
2022-11-28T20:34:18.924Z,9.63
2022-11-28T20:36:54.556Z,9.50
2022-11-28T20:39:23.209Z,8.82
2022-11-28T20:41:51.102Z,9.20
2022-11-28T20:44:19.515Z,9.45
2022-11-28T20:46:49.538Z,8.73
2022-11-28T20:49:18.869Z,9.77
2022-11-28T20:51:47.396Z,9.60
2022-11-28T20:54:15.734Z,9.88
2022-11-28T20:59:32.908Z,8.50
2022-11-28T21:02:00.744Z,9.63
2022-11-28T21:04:31.782Z,10.43
2022-11-28T21:06:59.514Z,11.00
2022-11-28T21:09:28.148Z,11.90
2022-11-28T21:11:58.997Z,12.57
2022-11-28T21:14:29.804Z,10.48
2022-11-28T21:16:58.764Z,10.40
2022-11-28T21:19:27.013Z,12.20
2022-11-28T21:21:57.257Z,12.40
2022-11-28T21:24:25.987Z,11.55
2022-11-28T21:26:54.808Z,11.27
2022-11-28T21:29:24.627Z,11.30
2022-11-28T21:31:53.277Z,11.32
2022-11-28T21:34:22.494Z,10.60
2022-11-28T21:36:50.699Z,9.82
2022-11-28T21:39:20.997Z,10.90
2022-11-28T21:41:51.088Z,10.55
2022-11-28T21:44:20.813Z,10.00
2022-11-28T21:46:49.737Z,10.75
2022-11-28T21:49:18.343Z,9.93
2022-11-28T21:51:46.785Z,10.35
2022-11-28T21:54:15.560Z,10.73
2022-11-28T21:56:45.859Z,10.40
2022-11-28T21:59:16.839Z,10.75
2022-11-28T22:01:46.274Z,10.38
2022-11-28T22:04:14.975Z,10.93
2022-11-28T22:06:43.429Z,11.75
2022-11-28T22:09:11.592Z,10.85
2022-11-28T22:11:40.330Z,11.52
2022-11-28T22:14:09.019Z,11.57
2022-11-28T22:16:38.165Z,12.23
2022-11-28T22:19:06.628Z,10.98
2022-11-28T22:21:55.342Z,12.55
2022-11-28T22:24:25.622Z,10.98
2022-11-28T22:26:55.787Z,11.95
2022-11-28T22:29:25.535Z,12.15
2022-11-28T22:31:54.884Z,12.05
2022-11-28T22:34:24.475Z,12.05
2022-11-28T22:36:53.121Z,10.82
2022-11-28T22:39:22.745Z,10.68
2022-11-28T22:41:50.735Z,10.70
2022-11-28T22:44:21.370Z,11.75
2022-11-28T22:46:49.223Z,11.25
2022-11-28T22:49:17.481Z,12.13
2022-11-28T22:51:45.264Z,12.13
2022-11-28T22:54:14.670Z,10.85
2022-11-28T22:56:42.453Z,11.52
2022-11-28T22:59:14.143Z,11.32
2022-11-28T23:01:43.602Z,12.18
2022-11-28T23:04:12.445Z,11.95
2022-11-28T23:06:40.985Z,13.20
2022-11-28T23:09:12.308Z,12.45
2022-11-28T23:11:40.998Z,10.52
2022-11-28T23:14:13.450Z,11.63
2022-11-28T23:16:43.363Z,11.70
2022-11-28T23:19:17.642Z,11.60
2022-11-28T23:21:48.027Z,11.77
2022-11-28T23:24:19.642Z,11.40
2022-11-28T23:26:51.593Z,12.48
2022-11-28T23:29:20.602Z,12.35
2022-11-28T23:31:50.075Z,11.73
2022-11-28T23:34:18.782Z,12.98
2022-11-28T23:36:48.755Z,12.65
2022-11-28T23:39:19.819Z,12.48
2022-11-28T23:41:49.962Z,11.80
2022-11-28T23:44:19.883Z,12.50
2022-11-28T23:46:49.050Z,12.55
2022-11-28T23:49:17.211Z,12.98
2022-11-28T23:51:45.046Z,12.15
2022-11-28T23:54:13.827Z,12.23
2022-11-28T23:59:13.026Z,12.73
